• Join FlightAware (Why Join?)
  • Login
  • US Flag 
10:58PM EDT


 

Airport Tracker/Info


-or-


 

Live Flight TrackerFlight Track Log ✈ BVN8571 ✈ 10-May-2013 ✈ KOMA - KEAR

Flight Track Log - Related Links

Times and Time Zones

All times are in EDT time to prevent confusion due to time zone crossing. See the BVN8571 flight status page for this flight to view local times or setup timezone preferences in your user account.

Time Position Orientation Groundspeed Altitude Reporting Facility
EDT Latitude Longitude Course Direction KTS MPH feet Rate Location/Type
08:27AM 41.3058 -95.8989 320° Northwest 74 85 1,400  Level Minneapolis Center
08:28AM 41.3172 -95.9114 321° Northwest 81 93 2,000 720 Climbing Minneapolis Center
08:29AM 41.3303 -95.9239 324° Northwest 91 105 2,500 540 Climbing Minneapolis Center
08:30AM 41.3422 -95.9672 290° West 115 132 3,100 600 Climbing Minneapolis Center
08:31AM 41.3269 -96.0225 250° West 139 160 3,800 720 Climbing Minneapolis Center
08:32AM 41.3161 -96.0892 258° West 146 168 4,700 660 Climbing Minneapolis Center
08:33AM 41.3072 -96.1389 257° West 145 167 5,400 660 Climbing Minneapolis Center
08:34AM 41.2956 -96.1914 254° West 140 161 6,100 720 Climbing Minneapolis Center
08:35AM 41.2842 -96.2425 253° West 137 158 6,800 660 Climbing Minneapolis Center
08:35AM 41.2861 -96.2492 291° West 141 162 7,000 600 Climbing Minneapolis Center
08:36AM 41.2747 -96.2933 251° West 139 160 7,400 540 Climbing Minneapolis Center
08:36AM 41.2772 -96.2986 302° West 139 160 7,600 540 Climbing Minneapolis Center
08:37AM 41.2653 -96.3417 250° West 136 157 8,000 480 Climbing Minneapolis Center
08:37AM 41.2689 -96.3467 314° West 135 155 8,100  Climbing Minneapolis Center
08:38AM 41.2539 -96.3956 248° West 159 183 8,000  Descending Minneapolis Center
08:38AM 41.2564 -96.4147 280° West 152 175 8,100  Climbing Minneapolis Center
08:39AM 41.2428 -96.4522 244° Southwest 162 186 8,000  Descending Minneapolis Center
08:39AM 41.2453 -96.4736 279° West 162 186 8,100  Climbing Minneapolis Center
08:40AM 41.2317 -96.5089 243° Southwest 160 184 8,000  Descending Minneapolis Center
08:41AM 41.2342 -96.5306 279° West 161 185 8,100  Climbing Minneapolis Center
08:41AM 41.2186 -96.5683 241° Southwest 157 181 8,000  Descending Minneapolis Center
08:42AM 41.2236 -96.5861 291° West 157 181 8,100  Climbing Minneapolis Center
08:42AM 41.2056 -96.6306 242° Southwest 157 181 8,000  Descending Minneapolis Center
08:43AM 41.2106 -96.6542 286° West 158 182 8,100  Climbing Minneapolis Center
08:43AM 41.1961 -96.6842 237° Southwest 160 184 8,000  Descending Minneapolis Center
08:44AM 41.1989 -96.7117 278° West 160 184 8,100  Climbing Minneapolis Center
08:44AM 41.1828 -96.7408 234° Southwest 160 184 8,000  Descending Minneapolis Center
08:45AM 41.1883 -96.7694 284° West 161 185 8,100  Climbing Minneapolis Center
08:45AM 41.1714 -96.7975 231° Southwest 159 183 8,000  Descending Minneapolis Center
08:46AM 41.1767 -96.8256 284° West 159 183 8,100  Climbing Minneapolis Center
08:46AM 41.1600 -96.8539 232° Southwest 161 185 8,000  Descending Minneapolis Center
08:47AM 41.1653 -96.8817 284° West 159 183 8,100  Climbing Minneapolis Center
08:47AM 41.1486 -96.9103 232° Southwest 161 185 8,000  Descending Minneapolis Center
08:48AM 41.1556 -96.9397 287° West 160 184 8,100  Climbing Minneapolis Center
08:49AM 41.1436 -96.9950 254° West 157 181 8,100  Level Minneapolis Center
08:50AM 41.1311 -97.0636 256° West 159 183 8,100  Level Minneapolis Center
08:51AM 41.1197 -97.1192 255° West 157 181 8,100  Level Minneapolis Center
08:52AM 41.1089 -97.1769 256° West 160 184 8,100  Level Minneapolis Center
08:53AM 41.0961 -97.2328 253° West 159 183 8,100  Level Minneapolis Center
08:54AM 41.0850 -97.2900 256° West 160 184 8,100  Level Minneapolis Center
08:55AM 41.0739 -97.3472 256° West 161 185 8,100  Level Minneapolis Center
08:56AM 41.0619 -97.4094 256° West 159 183 8,100  Level Minneapolis Center
08:57AM 41.0508 -97.4656 255° West 158 182 8,100  Level Minneapolis Center
08:58AM 41.0369 -97.5206 252° West 157 181 8,100  Level Minneapolis Center
08:59AM 41.0269 -97.5772 257° West 158 182 8,100  Level Minneapolis Center
09:00AM 41.0169 -97.6347 257° West 160 184 8,100  Level Minneapolis Center
09:01AM 41.0044 -97.6906 253° West 158 182 8,100  Level Minneapolis Center
09:02AM 40.9897 -97.7606 254° West 162 186 8,100  Level Minneapolis Center
09:03AM 40.9789 -97.8169 256° West 160 184 8,100  Level Minneapolis Center
09:04AM 40.9669 -97.8731 254° West 160 184 8,100  Level Minneapolis Center
09:05AM 40.9550 -97.9303 255° West 160 184 8,100  Level Minneapolis Center
09:06AM 40.9433 -97.9875 255° West 161 185 8,100  Level Minneapolis Center
09:07AM 40.9342 -98.0339 255° West 161 185 8,100  Level Minneapolis Center
09:08AM 40.9197 -98.1019 254° West 161 185 8,100  Level Minneapolis Center
09:09AM 40.9081 -98.1581 255° West 158 182 8,100  Level Minneapolis Center
09:10AM 40.8961 -98.2139 254° West 158 182 8,100  Level Minneapolis Center
09:11AM 40.8844 -98.2703 255° West 158 182 8,100  Level Minneapolis Center
09:12AM 40.8703 -98.3383 255° West 159 183 8,100  Level Minneapolis Center
09:13AM 40.8581 -98.3944 254° West 158 182 8,100 -120 Level Minneapolis Center
09:14AM 40.8464 -98.4517 255° West 159 183 7,900 -300 Descending Minneapolis Center
09:15AM 40.8339 -98.5106 254° West 162 186 7,600 -240 Descending Minneapolis Center
09:16AM 40.8206 -98.5700 254° West 165 190 7,500 -240 Descending Minneapolis Center
09:18AM 40.8075 -98.6303 254° West 167 192 7,200 -240 Descending Minneapolis Center
09:19AM 40.7953 -98.6906 255° West 169 194 7,000 -300 Descending Minneapolis Center
09:20AM 40.7828 -98.7500 254° West 168 193 6,700 -360 Descending Minneapolis Center
09:21AM 40.7675 -98.8236 255° West 170 196 6,300 -660 Descending Minneapolis Center
09:22AM 40.7522 -98.8861 252° West 174 200 5,400 -960 Descending Minneapolis Center
09:23AM 40.7378 -98.9517 254° West 179 206 4,400 -1,080 Descending Minneapolis Center
09:24AM 40.7283 -99.0181 259° West 182 209 3,200 -780 Descending Minneapolis Center
09:25AM 40.7000 -99.0172 179° South 162 186 2,900 -300 Descending Minneapolis Center
09:26AM 40.7258 -99.0106 11° North 141 162 2,600 -300 Descending Minneapolis Center